Orrville, OH (44667)

2:23 AM EDT on July 30, 2016 (GMT -0400)
Weilersville | | Change Station

Elev 1102 ft 40.84 °N, 81.85 °W | Updated 5 minutes ago

Clear
Clear
67.1 °F
Feels Like 67.1 °F
N
0.0
Wind Variable Wind from ENE

Today
High -- | Low -- °F
--% Chance of Precip.
Yesterday
High -- | Low -- °F
Precip. -- in
Pressure 29.93 in
Visibility 5.0 miles
Clouds Clear
Dew Point 66 °F
Humidity 98%
Rainfall 0.00 in
Snow Depth Not available.
6:22 AM 8:44 PM
Waning Crescent, 16% visible
METAR KBJJ 300556Z AUTO 13003KT 5SM BR CLR 19/18 A2995 RMK AO2 SLP135 60000 T01890178 10239 20189 58008
Pressure 29.93 in
Visibility 5.0 miles
Clouds Clear
Dew Point 66 °F
Humidity 98%
Rainfall 0.00 in
Snow Depth Not available.
6:22 AM 8:44 PM
Waning Crescent, 16% visible
METAR KBJJ 300556Z AUTO 13003KT 5SM BR CLR 19/18 A2995 RMK AO2 SLP135 60000 T01890178 10239 20189 58008

10-Day Weather Forecast

Almanac

Astronomy

Jul. 30, 2016 Rise Set
Actual Time
Civil Twilight
Nautical Twilight
Astronomical Twilight
Moon
Length of Visible Light
Length of Day
Tomorrow will be .
, % of the Moon is Illuminated

Today's Extremes

State Highs State Lows

Community

WunderPhotos

Upload Photos

1,928,508 photos uploaded!

WunderBlog® & News

Nearby

Air Quality

  Air Quality AQ Index Pollutant
Not available.

Snow Depth

Station Depth Elevation

Earthquake Activity

City Distance Mag. Time & Date
Minimum magnitude displayed is 2.5.

Coastal Water Temperatures

Place Temperature

Stations

Nearby Weather Stations

Station Location Temp. Windchill Dew Point Humidity Wind Precip. Elev Updated Type
                   

Watches & Warnings

There are currently no watches in effect.